Time;durP1;ratioP1;P1;durP2;ratioP2;P2;SDS_P1;SDS_P2;PMS_P1;PMS_P2;Temp;Humidity;BMP_temperature;BMP_pressure;BME280_temperature;BME280_humidity;BME280_pressure;Samples;Min_cycle;Max_cycle;Signal;HPM_P1;HPM_P2
2023/09/06 00:00:48;;;;;;;5.88;5.57;;;;;;;17.66;83.54;101018.50;6058445;23;20042;-73
2023/09/06 00:03:16;;;;;;;5.70;5.40;;;;;;;18.59;84.66;101211.50;6063631;23;20616;-75
2023/09/06 00:05:44;;;;;;;5.80;5.50;;;;;;;18.33;85.15;101175.31;6113279;23;20014;-76
2023/09/06 00:08:16;;;;;;;5.78;5.47;;;;;;;17.99;85.01;101125.78;6116690;23;20109;-76
2023/09/06 00:10:43;;;;;;;5.80;5.50;;;;;;;18.32;85.52;101191.38;6116062;23;20029;-74
2023/09/06 00:13:12;;;;;;;5.55;5.30;;;;;;;18.02;86.90;101175.97;6114448;23;20068;-73
2023/09/06 00:15:38;;;;;;;6.43;6.03;;;;;;;17.96;87.44;101173.78;6112561;23;20116;-73
2023/09/06 00:18:06;;;;;;;6.07;5.53;;;;;;;17.71;88.93;101154.38;6070978;23;20026;-74
2023/09/06 00:20:38;;;;;;;6.55;6.15;;;;;;;18.29;89.20;101250.94;6085334;23;20018;-74
2023/09/06 00:23:07;;;;;;;5.60;5.30;;;;;;;18.25;88.59;101232.69;6118405;23;20687;-72
2023/09/06 00:25:33;;;;;;;6.50;6.00;;;;;;;17.87;88.87;101176.19;6119323;23;20027;-73
2023/09/06 00:28:03;;;;;;;6.88;5.50;;;;;;;17.43;89.45;101121.09;6114537;23;20032;-74
2023/09/06 00:30:30;;;;;;;5.97;5.57;;;;;;;18.08;90.31;101248.09;6086291;23;20017;-74
2023/09/06 00:32:58;;;;;;;5.82;5.53;;;;;;;17.43;90.74;101147.63;6090713;23;20040;-74
2023/09/06 00:35:26;;;;;;;6.10;5.80;;;;;;;17.73;90.78;101202.91;6091269;23;20674;-73
2023/09/06 00:37:54;;;;;;;5.82;5.53;;;;;;;18.04;90.49;101243.09;6086574;23;20055;-73
2023/09/06 00:40:22;;;;;;;8.85;5.68;;;;;;;16.55;90.77;101053.19;6114511;23;20017;-75
2023/09/06 00:42:50;;;;;;;5.60;5.30;;;;;;;17.92;90.91;101245.75;6079649;23;20018;-74
2023/09/06 00:45:23;;;;;;;5.70;5.40;;;;;;;17.73;91.42;101237.41;6116237;23;20017;-76
2023/09/06 00:47:50;;;;;;;5.70;5.40;;;;;;;17.74;91.70;101247.09;6092198;23;20077;-74
2023/09/06 00:50:18;;;;;;;5.60;5.30;;;;;;;17.80;91.47;101259.91;6098066;23;20022;-74
2023/09/06 00:52:46;;;;;;;5.90;5.60;;;;;;;17.11;92.61;101166.75;6064874;23;20029;-72
2023/09/06 00:55:13;;;;;;;5.95;5.65;;;;;;;17.67;93.34;101283.81;6070201;23;20827;-73
2023/09/06 00:57:40;;;;;;;5.70;5.40;;;;;;;17.22;94.15;101230.47;6089520;23;20108;-73
2023/09/06 01:00:14;;;;;;;5.13;4.93;;;;;;;17.55;95.29;101290.03;6091149;23;20544;-72
2023/09/06 01:02:40;;;;;;;5.57;5.28;;;;;;;16.96;95.60;101227.03;6089134;23;20046;-74
2023/09/06 01:05:08;;;;;;;5.40;5.20;;;;;;;16.27;96.60;101097.53;6093444;23;20026;-74
2023/09/06 01:07:36;;;;;;;5.82;5.43;;;;;;;17.00;97.36;101230.28;6097172;23;20034;-73
2023/09/06 01:10:04;;;;;;;5.60;5.30;;;;;;;17.06;98.23;101253.72;6064440;23;20077;-74
2023/09/06 01:12:30;;;;;;;5.65;5.35;;;;;;;17.37;98.75;101300.16;6058850;23;20027;-75
2023/09/06 01:14:57;;;;;;;5.68;5.38;;;;;;;17.25;98.92;101269.19;6094741;23;20549;-73
2023/09/06 01:17:26;;;;;;;5.93;5.53;;;;;;;17.13;99.14;101268.25;6065218;23;20071;-74
2023/09/06 01:20:23;;;;;;;5.85;5.43;;;;;;;17.31;99.65;101292.63;6092239;23;20029;-72
2023/09/06 01:23:22;;;;;;;6.05;5.70;;;;;;;17.11;100.00;101278.13;6062494;23;20034;-74
2023/09/06 01:25:49;;;;;;;6.20;5.80;;;;;;;16.98;100.00;101256.94;6090644;23;20092;-74
2023/09/06 01:28:17;;;;;;;6.10;5.70;;;;;;;16.85;100.00;101237.53;6078562;23;20073;-74
2023/09/06 01:30:43;;;;;;;5.70;5.40;;;;;;;17.10;100.00;101282.59;6068229;23;20735;-75
2023/09/06 01:33:10;;;;;;;5.70;5.40;;;;;;;17.14;100.00;101299.16;6072662;23;20106;-74
2023/09/06 01:35:36;;;;;;;5.60;5.30;;;;;;;16.78;100.00;101252.13;6072056;23;20121;-73
2023/09/06 01:38:03;;;;;;;5.70;5.40;;;;;;;17.04;100.00;101312.19;6088212;23;20073;-73
2023/09/06 01:40:29;;;;;;;5.75;5.45;;;;;;;16.40;100.00;101207.91;6090350;23;20076;-73
2023/09/06 01:42:56;;;;;;;5.40;5.10;;;;;;;16.97;100.00;101310.91;6078972;23;20029;-74
2023/09/06 01:45:22;;;;;;;6.88;6.43;;;;;;;16.97;100.00;101318.88;6088661;23;20681;-74
2023/09/06 01:47:49;;;;;;;6.10;5.70;;;;;;;16.65;100.00;101260.94;6049504;23;20010;-74
2023/09/06 01:50:19;;;;;;;5.65;5.35;;;;;;;16.82;100.00;101310.19;6086039;23;20499;-76
2023/09/06 01:52:49;;;;;;;6.15;5.75;;;;;;;16.60;100.00;101263.06;6085964;23;20030;-74
2023/09/06 01:55:15;;;;;;;6.40;5.90;;;;;;;16.86;100.00;101313.47;6085760;23;20600;-74
2023/09/06 01:57:42;;;;;;;6.00;5.57;;;;;;;16.83;100.00;101317.16;6084108;23;20121;-75
2023/09/06 02:03:06;;;;;;;5.60;5.25;;;;;;;16.32;100.00;101235.81;6075815;23;20026;-74
2023/09/06 02:05:33;;;;;;;5.50;5.20;;;;;;;16.68;100.00;101291.69;6086839;23;20022;-74
2023/09/06 02:08:01;;;;;;;5.50;5.20;;;;;;;16.75;100.00;101308.84;6086798;23;20017;-75
2023/09/06 02:10:30;;;;;;;7.38;5.35;;;;;;;16.42;100.00;101262.53;6083957;23;20022;-76
2023/09/06 02:12:56;;;;;;;5.82;5.53;;;;;;;16.53;100.00;101275.03;6053564;23;20030;-75
2023/09/06 02:15:23;;;;;;;5.38;5.07;;;;;;;16.34;100.00;101239.19;6065828;23;20022;-73
2023/09/06 02:17:49;;;;;;;5.95;5.55;;;;;;;16.65;100.00;101299.84;6060901;23;20536;-73
2023/09/06 02:20:19;;;;;;;6.03;5.63;;;;;;;16.58;100.00;101288.81;6084045;23;20611;-73
2023/09/06 02:22:51;;;;;;;6.00;5.60;;;;;;;16.68;100.00;101304.94;6059108;23;20024;-73
2023/09/06 02:25:21;;;;;;;5.70;5.30;;;;;;;16.27;100.00;101250.31;6086778;23;20014;-74
2023/09/06 02:27:48;;;;;;;6.07;5.68;;;;;;;16.59;100.00;101318.81;6083902;23;20021;-74
2023/09/06 02:30:15;;;;;;;5.55;5.25;;;;;;;16.55;100.00;101320.81;6084250;23;20146;-74
2023/09/06 02:32:41;;;;;;;5.93;5.60;;;;;;;16.50;100.00;101320.28;6076692;23;20049;-74
2023/09/06 02:35:08;;;;;;;5.53;5.22;;;;;;;16.21;100.00;101293.09;6087938;23;20096;-76
2023/09/06 02:37:35;;;;;;;5.60;5.30;;;;;;;16.26;100.00;101305.06;6087324;23;20089;-73
2023/09/06 02:40:07;;;;;;;6.00;5.50;;;;;;;16.24;100.00;101314.94;6086702;23;20014;-74
2023/09/06 02:42:36;;;;;;;5.80;5.50;;;;;;;16.21;100.00;101319.56;6084226;23;20018;-75
2023/09/06 02:45:05;;;;;;;5.70;5.40;;;;;;;14.65;100.00;101078.25;6082361;23;20021;-75
2023/09/06 02:47:34;;;;;;;5.88;5.57;;;;;;;16.09;100.00;101319.41;6056908;23;20048;-74
2023/09/06 02:50:05;;;;;;;5.90;5.60;;;;;;;16.26;100.00;101351.91;6105619;23;20590;-74
2023/09/06 02:52:35;;;;;;;5.60;5.30;;;;;;;16.24;100.00;101352.00;6088960;23;20018;-75
2023/09/06 02:55:10;;;;;;;5.60;5.30;;;;;;;16.24;100.00;101346.72;6092127;23;20674;-72
2023/09/06 02:57:40;;;;;;;5.80;5.50;;;;;;;16.03;100.00;101337.50;6092393;23;20475;-73
2023/09/06 03:00:35;;;;;;;5.63;5.32;;;;;;;16.02;100.00;101323.44;6112318;23;20098;-74
2023/09/06 03:02:59;;;;;;;5.55;5.25;;;;;;;16.32;100.00;101362.94;6085180;23;20102;-74
2023/09/06 03:05:27;;;;;;;5.60;5.30;;;;;;;16.30;100.00;101369.31;6115272;23;20025;-73
2023/09/06 03:07:54;;;;;;;5.10;4.90;;;;;;;16.03;100.00;101311.03;6095437;23;20606;-75
2023/09/06 03:10:22;;;;;;;5.60;5.30;;;;;;;16.01;100.00;101307.63;6089649;23;20072;-73
2023/09/06 03:12:54;;;;;;;5.90;5.50;;;;;;;15.80;100.00;101289.56;6113772;23;20021;-74
2023/09/06 03:15:24;;;;;;;5.70;5.40;;;;;;;16.20;100.00;101354.97;6092883;23;20417;-73
2023/09/06 03:17:51;;;;;;;6.13;5.72;;;;;;;16.05;100.00;101331.16;6090426;23;20021;-73
2023/09/06 03:20:33;;;;;;;6.47;6.00;;;;;;;16.06;100.00;101334.69;6114597;23;20021;-74
2023/09/06 03:23:02;;;;;;;8.25;6.45;;;;;;;16.12;100.00;101348.34;6105408;23;20084;-73
2023/09/06 03:25:29;;;;;;;6.65;6.03;;;;;;;16.07;100.00;101347.78;6111819;23;20046;-75
2023/09/06 03:28:00;;;;;;;6.45;6.05;;;;;;;16.05;100.00;101354.16;6115275;23;20093;-75
2023/09/06 03:30:30;;;;;;;6.80;6.07;;;;;;;15.46;100.00;101262.59;6112842;23;20036;-75
2023/09/06 03:32:58;;;;;;;7.07;6.38;;;;;;;15.81;100.00;101328.31;6111601;23;20076;-75
2023/09/06 03:35:25;;;;;;;8.35;6.35;;;;;;;15.93;100.00;101363.72;6088199;23;20005;-73
2023/09/06 03:37:52;;;;;;;8.02;7.03;;;;;;;15.79;100.00;101356.66;6117127;23;20065;-74
2023/09/06 03:40:25;;;;;;;8.02;7.22;;;;;;;15.75;100.00;101345.44;6090428;23;20045;-75
2023/09/06 03:42:53;;;;;;;9.60;6.68;;;;;;;15.43;100.00;101305.09;6093089;23;20029;-75
2023/09/06 03:45:24;;;;;;;8.13;7.05;;;;;;;15.80;100.00;101368.13;6093303;23;20087;-76
2023/09/06 03:47:54;;;;;;;8.30;6.70;;;;;;;15.39;100.00;101305.38;6109085;23;20014;-74
2023/09/06 03:50:21;;;;;;;9.45;7.03;;;;;;;15.49;100.00;101338.25;6089955;23;20418;-75
2023/09/06 03:52:48;;;;;;;7.10;6.60;;;;;;;15.71;100.00;101375.63;6113292;23;20102;-74
2023/09/06 03:55:16;;;;;;;6.70;6.18;;;;;;;15.67;100.00;101378.56;6115475;23;20129;-73
2023/09/06 03:57:44;;;;;;;6.63;6.07;;;;;;;15.64;100.00;101376.97;6116229;23;20115;-75
2023/09/06 04:02:56;;;;;;;6.13;5.75;;;;;;;15.58;100.00;101381.81;6088799;23;20024;-75
2023/09/06 04:05:27;;;;;;;6.60;6.00;;;;;;;15.46;100.00;101373.69;6112572;23;20091;-73
2023/09/06 04:07:59;;;;;;;6.20;5.60;;;;;;;15.54;100.00;101389.94;6114712;23;20013;-75
2023/09/06 04:10:36;;;;;;;6.47;5.97;;;;;;;15.40;100.00;101378.50;6090982;23;20013;-74
2023/09/06 04:13:04;;;;;;;6.82;6.22;;;;;;;15.20;100.00;101340.06;6091980;23;20057;-75
2023/09/06 04:15:34;;;;;;;7.00;6.40;;;;;;;15.11;100.00;101360.84;6070636;23;20052;-73
2023/09/06 04:18:03;;;;;;;6.65;6.03;;;;;;;15.23;100.00;101377.72;6090808;23;20104;-73
2023/09/06 04:20:35;;;;;;;6.22;5.72;;;;;;;15.03;100.00;101352.50;6122760;23;20471;-74
2023/09/06 04:23:06;;;;;;;5.80;5.40;;;;;;;15.28;100.00;101393.34;6130900;23;20014;-73
2023/09/06 04:25:41;;;;;;;5.72;5.32;;;;;;;15.34;100.00;101419.41;6133376;23;20177;-75
2023/09/06 04:28:10;;;;;;;6.00;5.60;;;;;;;15.18;100.00;101384.25;6106973;23;20089;-76
2023/09/06 04:30:40;;;;;;;6.43;5.93;;;;;;;15.33;100.00;101420.34;6125227;23;20032;-74
2023/09/06 04:33:10;;;;;;;7.05;6.38;;;;;;;15.34;100.00;101424.69;6093400;23;20386;-74
2023/09/06 04:35:38;;;;;;;7.47;6.88;;;;;;;14.27;100.00;101252.22;6096479;23;20041;-73
2023/09/06 04:38:09;;;;;;;7.00;6.40;;;;;;;15.30;100.00;101428.47;6117157;23;20028;-74
2023/09/06 04:40:37;;;;;;;7.22;6.53;;;;;;;15.28;100.00;101430.38;6097345;23;20017;-73
2023/09/06 04:43:07;;;;;;;7.40;6.45;;;;;;;15.25;100.00;101434.03;6117955;23;20093;-75
2023/09/06 04:45:37;;;;;;;6.68;5.82;;;;;;;15.23;100.00;101437.69;6118497;23;20033;-73
2023/09/06 04:48:05;;;;;;;6.32;5.85;;;;;;;15.21;100.00;101440.44;6118882;23;20090;-75
2023/09/06 04:50:32;;;;;;;7.15;6.50;;;;;;;15.18;100.00;101439.78;6118560;23;20236;-76
2023/09/06 04:52:59;;;;;;;8.80;6.70;;;;;;;14.88;100.00;101391.28;6093563;23;20029;-74
2023/09/06 04:55:25;;;;;;;8.10;7.38;;;;;;;15.18;100.00;101448.56;6098974;23;20597;-74
2023/09/06 04:57:53;;;;;;;6.72;6.22;;;;;;;14.88;100.00;101398.38;6120591;23;20526;-75
2023/09/06 05:00:30;;;;;;;6.03;5.63;;;;;;;15.18;100.00;101434.50;6116354;23;20012;-76
2023/09/06 05:02:57;;;;;;;6.03;5.65;;;;;;;15.42;100.00;101459.47;6116233;23;20029;-75
2023/09/06 05:05:24;;;;;;;5.72;5.40;;;;;;;15.24;100.00;101420.91;6119325;23;20001;-74
2023/09/06 05:07:54;;;;;;;5.72;5.43;;;;;;;15.35;100.00;101421.09;6119438;23;20640;-75
2023/09/06 05:10:21;;;;;;;5.70;5.40;;;;;;;15.10;100.00;101379.44;6114560;23;20001;-73
2023/09/06 05:12:47;;;;;;;5.68;5.38;;;;;;;15.51;100.00;101447.47;6097824;23;20448;-73
2023/09/06 05:15:14;;;;;;;5.80;5.40;;;;;;;15.35;100.00;101423.75;6115709;23;20148;-73
2023/09/06 05:17:40;;;;;;;6.20;5.80;;;;;;;14.90;100.00;101352.41;6110840;23;20041;-73
2023/09/06 05:20:31;;;;;;;6.15;5.75;;;;;;;15.47;100.00;101452.09;6113419;23;20054;-71
2023/09/06 05:23:05;;;;;;;5.70;5.40;;;;;;;15.50;100.00;101453.72;6119457;23;20026;-71
2023/09/06 05:25:33;;;;;;;5.78;5.47;;;;;;;15.56;100.00;101480.63;6122308;23;20467;-73
2023/09/06 05:28:11;;;;;;;5.57;5.28;;;;;;;15.56;100.00;101446.25;6092328;23;20432;-74
2023/09/06 05:30:43;;;;;;;5.78;5.47;;;;;;;15.23;100.00;101390.94;6111831;23;20099;-71
2023/09/06 05:33:11;;;;;;;5.35;5.15;;;;;;;15.47;100.00;101414.22;6113841;23;20037;-73
2023/09/06 05:35:37;;;;;;;5.45;5.18;;;;;;;15.92;100.00;101466.13;6114199;23;20053;-72
2023/09/06 05:38:04;;;;;;;5.60;5.30;;;;;;;16.04;100.00;101445.13;6114893;23;20124;-74
2023/09/06 05:40:33;;;;;;;5.47;5.18;;;;;;;15.80;100.00;101395.44;6115381;23;20017;-73
2023/09/06 05:43:00;;;;;;;5.50;5.20;;;;;;;16.27;100.00;101428.59;6093704;23;20040;-74
2023/09/06 05:45:28;;;;;;;6.05;5.50;;;;;;;16.25;100.00;101405.81;6087985;23;20028;-71
2023/09/06 05:47:55;;;;;;;5.97;5.32;;;;;;;16.28;100.00;101393.22;6089703;23;20088;-73
2023/09/06 05:50:22;;;;;;;5.68;5.35;;;;;;;16.45;100.00;101412.47;6094081;23;20017;-75
2023/09/06 05:52:48;;;;;;;7.35;6.25;;;;;;;15.90;100.00;101319.78;6087433;23;20013;-74
2023/09/06 05:55:15;;;;;;;5.85;5.45;;;;;;;16.53;100.00;101418.09;6099226;23;20024;-72
2023/09/06 05:57:41;;;;;;;6.20;5.78;;;;;;;16.60;100.00;101435.31;6115615;23;20475;-74
2023/09/06 06:00:21;;;;;;;6.05;5.68;;;;;;;16.65;100.00;101416.44;6115978;23;20499;-75
2023/09/06 06:02:49;;;;;;;5.80;5.50;;;;;;;16.39;100.00;101367.84;6086091;23;20031;-75
2023/09/06 06:05:18;;;;;;;9.18;5.63;;;;;;;16.44;100.00;101363.09;6114250;23;20025;-73
2023/09/06 06:07:45;;;;;;;5.93;5.43;;;;;;;16.87;100.00;101410.59;6094920;23;20076;-74
2023/09/06 06:10:13;;;;;;;6.22;5.80;;;;;;;16.82;100.00;101388.84;6091397;23;20738;-73
2023/09/06 06:12:40;;;;;;;6.03;5.63;;;;;;;16.85;100.00;101378.88;6117381;23;20041;-74
2023/09/06 06:15:08;;;;;;;5.85;5.45;;;;;;;17.13;100.00;101404.38;6090591;23;20091;-73
2023/09/06 06:17:35;;;;;;;8.50;5.55;;;;;;;16.78;100.00;101335.16;6113929;23;20648;-73
2023/09/06 06:20:06;;;;;;;5.85;5.40;;;;;;;17.17;100.00;101361.72;6115616;23;20104;-72
2023/09/06 06:22:38;;;;;;;5.93;5.60;;;;;;;17.26;100.00;101345.16;6096752;23;20124;-72
2023/09/06 06:25:07;;;;;;;5.93;5.43;;;;;;;17.47;100.00;101332.19;6115354;23;20025;-74
2023/09/06 06:27:36;;;;;;;5.72;5.40;;;;;;;17.41;100.00;101291.00;6119310;23;20519;-75
2023/09/06 06:30:05;;;;;;;5.57;5.28;;;;;;;17.90;100.00;101321.16;6110468;23;20021;-72
2023/09/06 06:32:33;;;;;;;5.95;5.65;;;;;;;18.15;99.82;101328.16;6093131;23;20066;-73
2023/09/06 06:35:05;;;;;;;6.10;5.70;;;;;;;17.99;97.04;101253.25;6118036;23;20393;-73
2023/09/06 06:37:32;;;;;;;5.95;5.55;;;;;;;18.51;94.21;101283.84;6092282;23;20062;-74
2023/09/06 06:39:59;;;;;;;6.25;5.75;;;;;;;18.66;93.07;101271.19;6121596;23;20112;-74
2023/09/06 06:42:26;;;;;;;6.05;5.70;;;;;;;18.65;91.90;101235.78;6086308;23;20021;-73
2023/09/06 06:44:53;;;;;;;5.60;5.20;;;;;;;18.56;89.11;101153.25;6112361;23;20906;-71
2023/09/06 06:47:20;;;;;;;5.85;5.55;;;;;;;18.95;88.19;101197.13;6114457;23;20404;-75
2023/09/06 06:49:49;;;;;;;6.53;6.13;;;;;;;18.87;86.87;101162.34;6083770;23;20029;-75
2023/09/06 06:52:16;;;;;;;5.72;5.43;;;;;;;19.09;85.21;101130.38;6115353;23;20172;-72
2023/09/06 06:54:42;;;;;;;5.82;5.47;;;;;;;19.44;84.78;101187.00;6084668;23;20034;-75
2023/09/06 06:57:10;;;;;;;6.00;5.63;;;;;;;19.31;84.01;101142.75;6117131;23;20052;-72
2023/09/06 06:59:36;;;;;;;6.20;5.82;;;;;;;19.38;82.91;101112.97;6115674;23;20064;-73
2023/09/06 07:02:03;;;;;;;6.25;5.90;;;;;;;19.80;81.44;101134.34;6117638;23;20057;-72
2023/09/06 07:04:30;;;;;;;5.82;5.53;;;;;;;19.92;81.57;101143.97;6087330;23;20713;-73
2023/09/06 07:06:56;;;;;;;8.52;5.63;;;;;;;19.52;80.66;101057.63;6080785;23;20279;-73
2023/09/06 07:09:23;;;;;;;6.53;5.93;;;;;;;20.11;80.64;101143.25;6113311;23;20057;-73
2023/09/06 07:11:52;;;;;;;6.03;5.68;;;;;;;20.10;79.92;101131.75;6094031;23;20566;-75
2023/09/06 07:14:18;;;;;;;5.93;5.63;;;;;;;20.35;78.03;101110.13;6113746;23;20030;-72
2023/09/06 07:16:45;;;;;;;5.88;5.53;;;;;;;20.48;76.53;101073.41;6061506;23;20030;-73
2023/09/06 07:19:12;;;;;;;6.25;5.88;;;;;;;20.60;75.83;101080.38;6086963;23;20033;-73
2023/09/06 07:21:38;;;;;;;5.90;5.60;;;;;;;20.31;76.16;101025.09;6070987;23;20053;-74
2023/09/06 07:24:06;;;;;;;6.53;6.13;;;;;;;20.59;74.00;101030.69;6115819;23;20040;-74
2023/09/06 07:26:32;;;;;;;6.05;5.70;;;;;;;20.95;73.52;101051.50;6088966;23;20163;-72
2023/09/06 07:28:58;;;;;;;5.75;5.45;;;;;;;21.13;73.44;101076.53;6088118;23;20039;-73
2023/09/06 07:31:25;;;;;;;5.70;5.40;;;;;;;20.78;72.08;100987.19;6111532;23;20355;-74
2023/09/06 07:33:52;;;;;;;6.18;5.88;;;;;;;21.35;71.26;101053.19;6114616;23;20049;-74
2023/09/06 07:36:18;;;;;;;5.90;5.60;;;;;;;21.05;71.16;100991.84;6117687;23;20056;-73
2023/09/06 07:38:45;;;;;;;5.75;5.45;;;;;;;21.54;70.45;101068.41;6111655;23;20022;-72
2023/09/06 07:41:12;;;;;;;6.22;5.80;;;;;;;21.66;69.16;101030.69;6088319;23;20021;-75
2023/09/06 07:43:39;;;;;;;5.90;5.60;;;;;;;21.61;69.90;101035.66;6118388;23;20041;-73
2023/09/06 07:46:09;;;;;;;5.97;5.68;;;;;;;21.76;67.19;100982.59;6087771;23;20041;-72
2023/09/06 07:48:36;;;;;;;5.78;5.47;;;;;;;21.99;68.21;101051.69;6095899;23;20048;-73
2023/09/06 07:51:04;;;;;;;6.22;5.88;;;;;;;22.16;67.67;101064.31;6111307;23;20029;-76
2023/09/06 07:53:32;;;;;;;5.97;5.60;;;;;;;22.05;66.54;100995.00;6117705;23;20048;-74
2023/09/06 07:56:01;;;;;;;6.10;5.70;;;;;;;22.00;66.03;100994.59;6113617;23;20136;-73
2023/09/06 07:58:28;;;;;;;6.00;5.70;;;;;;;22.42;65.37;101047.63;6104951;23;20543;-75
2023/09/06 08:00:57;;;;;;;5.97;5.57;;;;;;;22.48;65.19;101049.69;6113762;23;20081;-73
2023/09/06 08:03:44;;;;;;;6.25;5.85;;;;;;;22.57;63.60;101006.03;6074572;23;20085;-74
2023/09/06 08:06:11;;;;;;;6.18;5.82;;;;;;;22.74;64.23;101025.75;6119274;23;20044;-71
2023/09/06 08:08:38;;;;;;;6.40;5.97;;;;;;;22.92;64.41;101068.59;6114153;23;20048;-73
2023/09/06 08:11:05;;;;;;;6.47;6.07;;;;;;;22.94;65.21;101085.31;6090005;23;20101;-74
2023/09/06 08:13:32;;;;;;;6.15;5.75;;;;;;;23.14;62.48;101047.75;6089524;23;20989;-74
2023/09/06 08:15:58;;;;;;;6.18;5.88;;;;;;;22.96;63.23;101035.16;6111400;23;20100;-73
2023/09/06 08:18:25;;;;;;;6.13;5.70;;;;;;;23.30;62.08;101045.19;6079515;23;20021;-74
2023/09/06 08:20:51;;;;;;;6.05;5.70;;;;;;;21.65;61.76;100769.94;6114911;23;20087;-73
2023/09/06 08:23:18;;;;;;;6.47;6.05;;;;;;;23.52;62.45;101093.94;6108084;23;20036;-74
2023/09/06 08:25:46;;;;;;;7.05;6.47;;;;;;;23.58;61.46;101051.28;6085606;23;20098;-74
2023/09/06 08:28:15;;;;;;;6.28;5.95;;;;;;;23.73;59.93;100989.06;6112919;23;20025;-74
2023/09/06 08:30:43;;;;;;;6.53;6.03;;;;;;;23.69;59.94;101012.66;6089663;23;20044;-73
2023/09/06 08:33:11;;;;;;;6.70;6.20;;;;;;;23.67;59.94;100991.41;6091462;23;20566;-75
2023/09/06 08:35:38;;;;;;;6.85;6.25;;;;;;;23.84;59.65;101005.75;6113886;23;20027;-74
2023/09/06 08:38:04;;;;;;;6.50;6.10;;;;;;;23.66;58.35;100933.44;6089058;23;20600;-74
2023/09/06 08:40:31;;;;;;;6.50;6.10;;;;;;;23.53;57.99;100916.09;6083430;23;20013;-74
2023/09/06 08:43:03;;;;;;;6.38;5.97;;;;;;;24.17;58.59;101050.66;6113453;23;20029;-75
2023/09/06 08:45:30;;;;;;;6.00;5.70;;;;;;;24.06;56.54;100933.81;6116900;23;20038;-74
2023/09/06 08:47:56;;;;;;;6.45;6.05;;;;;;;24.34;56.90;100987.19;6116175;23;20037;-73
2023/09/06 08:50:23;;;;;;;6.10;5.80;;;;;;;24.26;55.65;100955.81;6110288;23;20625;-72
2023/09/06 08:52:51;;;;;;;6.32;5.93;;;;;;;23.63;56.14;100885.53;6088461;23;20014;-74
2023/09/06 08:55:18;;;;;;;6.72;6.25;;;;;;;24.30;56.42;100994.72;6112809;23;20047;-74
2023/09/06 08:57:45;;;;;;;7.18;6.68;;;;;;;24.51;54.85;100931.75;6092211;23;20029;-73
2023/09/06 09:00:13;;;;;;;6.63;6.13;;;;;;;24.60;55.06;100958.44;6114420;23;20020;-75
2023/09/06 09:02:42;;;;;;;6.40;6.00;;;;;;;24.89;54.73;101005.44;6119176;23;20088;-74
2023/09/06 09:05:11;;;;;;;6.80;6.30;;;;;;;24.94;54.20;100997.75;6118757;23;20359;-73
2023/09/06 09:07:49;;;;;;;6.60;6.20;;;;;;;24.96;53.03;100958.13;6116488;23;20049;-74
2023/09/06 09:10:16;;;;;;;6.95;6.38;;;;;;;24.71;53.80;100964.50;6108187;23;20577;-74
2023/09/06 09:12:43;;;;;;;7.13;6.15;;;;;;;25.03;52.86;100979.78;6117886;23;20025;-74
2023/09/06 09:15:09;;;;;;;6.68;6.18;;;;;;;25.35;52.06;100995.06;6110038;23;20636;-73
2023/09/06 09:17:50;;;;;;;6.93;6.53;;;;;;;25.48;51.70;100999.94;6114430;23;20017;-74
2023/09/06 09:20:26;;;;;;;6.70;6.28;;;;;;;25.22;52.03;100981.31;6115032;23;19997;-74
2023/09/06 09:23:00;;;;;;;6.53;6.13;;;;;;;25.71;52.79;101118.31;6115741;23;20033;-73
2023/09/06 09:25:26;;;;;;;6.55;6.15;;;;;;;25.85;52.07;101060.31;6106407;23;20025;-72
2023/09/06 09:27:56;;;;;;;6.95;6.55;;;;;;;25.80;51.87;101066.22;6115867;23;20497;-74
2023/09/06 09:30:23;;;;;;;6.82;6.43;;;;;;;25.34;51.83;100993.41;6085871;23;20041;-75
2023/09/06 09:32:58;;;;;;;6.40;6.00;;;;;;;26.27;52.19;101158.78;6111945;23;20393;-73
2023/09/06 09:35:26;;;;;;;6.72;6.22;;;;;;;26.30;51.54;101093.00;6087670;23;20076;-72
2023/09/06 09:37:56;;;;;;;7.22;6.63;;;;;;;25.79;49.21;100929.28;6120126;23;20067;-74
2023/09/06 09:40:32;;;;;;;6.60;6.20;;;;;;;26.23;49.66;101028.31;6090748;23;20273;-72
2023/09/06 09:43:19;;;;;;;6.85;6.45;;;;;;;26.18;50.05;101046.81;6113136;23;20035;-74
2023/09/06 09:45:45;;;;;;;6.97;6.32;;;;;;;26.33;49.80;101060.38;6101651;23;20025;-74
2023/09/06 09:48:15;;;;;;;6.72;6.32;;;;;;;26.42;48.51;101002.81;6095577;23;20037;-74
2023/09/06 09:50:43;;;;;;;6.68;6.28;;;;;;;26.68;47.98;101037.50;6116856;23;20024;-73
2023/09/06 09:53:12;;;;;;;8.00;7.40;;;;;;;26.62;47.40;101022.06;6062412;23;20018;-74
2023/09/06 09:55:46;;;;;;;6.68;6.28;;;;;;;25.85;48.42;100964.38;6114047;23;20085;-74
2023/09/06 09:58:13;;;;;;;6.80;6.30;;;;;;;26.65;47.80;101079.09;6069687;23;20633;-73
2023/09/06 10:00:41;;;;;;;6.70;6.25;;;;;;;26.83;47.47;101051.88;6116299;23;20037;-74
2023/09/06 10:03:09;;;;;;;6.75;6.35;;;;;;;26.84;47.52;101076.97;6087723;23;20049;-74
2023/09/06 10:05:38;;;;;;;6.38;6.00;;;;;;;27.15;47.96;101124.59;6090942;23;20238;-74
2023/09/06 10:08:08;;;;;;;6.65;6.25;;;;;;;27.08;47.37;101072.44;6114874;23;20035;-74
2023/09/06 10:10:39;;;;;;;6.50;6.20;;;;;;;27.11;47.34;101059.44;6093963;23;20080;-73
2023/09/06 10:13:09;;;;;;;6.95;6.45;;;;;;;27.59;46.31;101091.59;6115561;23;20041;-74
2023/09/06 10:15:37;;;;;;;7.18;6.68;;;;;;;27.28;45.71;101016.22;6087448;23;20026;-74
2023/09/06 10:18:07;;;;;;;6.68;6.18;;;;;;;27.52;45.72;101066.38;6114484;23;20029;-73
2023/09/06 10:20:37;;;;;;;7.15;6.55;;;;;;;27.42;47.11;101097.16;6115874;23;20017;-73
2023/09/06 10:23:05;;;;;;;6.50;6.10;;;;;;;27.79;45.69;101075.75;6115979;23;20056;-74
2023/09/06 10:25:41;;;;;;;6.85;6.38;;;;;;;27.89;43.74;101019.69;6087717;23;20014;-72
2023/09/06 10:28:08;;;;;;;6.90;6.50;;;;;;;27.96;43.91;101044.88;6115841;23;20496;-74
2023/09/06 10:30:48;;;;;;;7.07;6.68;;;;;;;27.80;43.69;101001.88;6096392;23;20078;-72
2023/09/06 10:33:33;;;;;;;7.15;6.55;;;;;;;28.21;41.18;100977.16;6112151;23;20053;-75
2023/09/06 10:36:07;;;;;;;6.68;6.28;;;;;;;28.24;41.99;101009.13;6113233;23;20025;-75
2023/09/06 10:38:58;;;;;;;7.10;6.60;;;;;;;28.32;41.09;101010.91;6114482;23;20041;-73
2023/09/06 10:41:26;;;;;;;7.03;6.53;;;;;;;28.36;39.05;100923.09;6110594;23;20088;-75
2023/09/06 10:43:59;;;;;;;7.25;6.72;;;;;;;28.31;39.46;100964.19;6091335;23;20021;-74
2023/09/06 10:46:33;;;;;;;6.60;6.20;;;;;;;28.41;39.96;101015.16;6085629;23;20065;-74
2023/09/06 10:49:25;;;;;;;6.68;6.28;;;;;;;28.63;39.72;101040.38;6117995;23;20020;-74
2023/09/06 10:52:11;;;;;;;6.90;6.50;;;;;;;28.57;39.18;101027.63;6089361;23;20045;-72
2023/09/06 10:54:40;;;;;;;6.95;6.45;;;;;;;28.52;39.62;101016.56;6108443;23;20538;-72
2023/09/06 10:57:10;;;;;;;6.90;6.40;;;;;;;28.28;38.84;100944.81;6110573;23;20025;-75
2023/09/06 10:59:37;;;;;;;6.88;6.38;;;;;;;28.57;38.91;101014.97;6111895;23;20026;-76
2023/09/06 11:02:14;;;;;;;7.20;6.75;;;;;;;28.68;38.63;101027.13;6113537;23;20029;-75
2023/09/06 11:04:43;;;;;;;7.10;6.60;;;;;;;28.64;38.43;101001.53;6097306;23;20037;-74
2023/09/06 11:07:10;;;;;;;6.32;5.95;;;;;;;28.82;37.96;100999.22;6118719;23;20021;-71
2023/09/06 11:09:43;;;;;;;6.95;6.55;;;;;;;28.71;37.45;100972.72;6063868;23;20725;-73
2023/09/06 11:12:13;;;;;;;;;;;;;;;28.76;38.58;101020.75;6113209;23;20021;-74
2023/09/06 11:14:40;;;;;;;6.68;6.28;;;;;;;28.86;38.61;101040.19;6111320;23;19960;-74
2023/09/06 11:17:07;;;;;;;6.97;6.53;;;;;;;28.70;38.75;101035.88;6112197;23;20032;-74
2023/09/06 11:19:37;;;;;;;6.85;6.45;;;;;;;28.83;38.09;101003.59;6117831;23;20028;-73
2023/09/06 11:22:08;;;;;;;6.65;6.25;;;;;;;29.13;37.40;101008.06;6083356;23;20085;-72
2023/09/06 11:24:35;;;;;;;7.10;6.60;;;;;;;29.38;37.32;101021.97;6114708;23;20215;-74
2023/09/06 11:27:24;;;;;;;7.43;6.93;;;;;;;29.50;36.42;101004.19;6106446;23;20021;-74
2023/09/06 11:30:10;;;;;;;6.85;6.40;;;;;;;29.41;37.63;101038.66;6119151;23;20025;-72
2023/09/06 11:32:39;;;;;;;6.70;6.30;;;;;;;29.55;38.05;101063.09;6085284;23;20699;-72
2023/09/06 11:35:08;;;;;;;6.80;6.38;;;;;;;29.25;37.53;100992.97;6115560;23;20435;-74
2023/09/06 11:37:38;;;;;;;7.13;6.55;;;;;;;29.61;36.94;101016.34;6065035;23;20099;-74